sensor_id;sensor_type;location;lat;lon;timestamp;pressure;altitude;pressure_sealevel;temperature;humidity
50250;BME280;36133;42.522;27.456;2023-05-07T00:02:21;101419.34;;;17.78;42.21
50250;BME280;36133;42.522;27.456;2023-05-07T00:04:48;101375.81;;;17.45;41.99
50250;BME280;36133;42.522;27.456;2023-05-07T00:07:14;101443.59;;;18.06;41.73
50250;BME280;36133;42.522;27.456;2023-05-07T00:09:40;101485.56;;;18.18;41.49
50250;BME280;36133;42.522;27.456;2023-05-07T00:12:06;101476.69;;;18.23;41.24
50250;BME280;36133;42.522;27.456;2023-05-07T00:14:31;101389.97;;;17.73;41.00
50250;BME280;36133;42.522;27.456;2023-05-07T00:16:57;101468.66;;;18.59;40.72
50250;BME280;36133;42.522;27.456;2023-05-07T00:19:23;101347.53;;;17.64;40.97
50250;BME280;36133;42.522;27.456;2023-05-07T00:21:48;101467.19;;;17.22;44.00
50250;BME280;36133;42.522;27.456;2023-05-07T00:24:14;101477.69;;;17.19;44.52
50250;BME280;36133;42.522;27.456;2023-05-07T00:26:39;101447.72;;;16.99;44.98
50250;BME280;36133;42.522;27.456;2023-05-07T00:29:05;101470.72;;;17.29;44.18
50250;BME280;36133;42.522;27.456;2023-05-07T00:31:30;101487.78;;;17.90;42.63
50250;BME280;36133;42.522;27.456;2023-05-07T00:33:56;101484.34;;;17.43;43.63
50250;BME280;36133;42.522;27.456;2023-05-07T00:36:21;101488.22;;;17.93;42.86
50250;BME280;36133;42.522;27.456;2023-05-07T00:38:47;101317.63;;;16.99;42.70
50250;BME280;36133;42.522;27.456;2023-05-07T00:41:12;101491.41;;;18.22;42.44
50250;BME280;36133;42.522;27.456;2023-05-07T00:43:38;101351.78;;;17.60;41.49
50250;BME280;36133;42.522;27.456;2023-05-07T00:46:03;101442.53;;;18.07;41.77
50250;BME280;36133;42.522;27.456;2023-05-07T00:48:29;101495.22;;;18.14;42.13
50250;BME280;36133;42.522;27.456;2023-05-07T00:50:56;101403.81;;;17.14;43.41
50250;BME280;36133;42.522;27.456;2023-05-07T00:53:22;101489.47;;;16.73;45.57
50250;BME280;36133;42.522;27.456;2023-05-07T00:55:48;101433.84;;;15.19;48.09
50250;BME280;36133;42.522;27.456;2023-05-07T00:58:13;101428.47;;;15.32;48.34
50250;BME280;36133;42.522;27.456;2023-05-07T01:00:39;101382.09;;;15.53;47.55
50250;BME280;36133;42.522;27.456;2023-05-07T01:03:04;101501.00;;;15.88;48.33
50250;BME280;36133;42.522;27.456;2023-05-07T01:05:30;101476.13;;;16.04;46.94
50250;BME280;36133;42.522;27.456;2023-05-07T01:07:56;101493.03;;;16.74;45.51
50250;BME280;36133;42.522;27.456;2023-05-07T01:10:22;101502.28;;;16.73;46.78
50250;BME280;36133;42.522;27.456;2023-05-07T01:12:48;101506.34;;;17.74;44.34
50250;BME280;36133;42.522;27.456;2023-05-07T01:15:15;101441.41;;;17.05;43.89
50250;BME280;36133;42.522;27.456;2023-05-07T01:17:41;101478.31;;;17.08;44.31
50250;BME280;36133;42.522;27.456;2023-05-07T01:20:08;101474.53;;;16.56;44.77
50250;BME280;36133;42.522;27.456;2023-05-07T01:22:37;101506.81;;;16.39;45.88
50250;BME280;36133;42.522;27.456;2023-05-07T01:25:03;101504.16;;;16.98;44.92
50250;BME280;36133;42.522;27.456;2023-05-07T01:27:29;101260.00;;;15.37;45.12
50250;BME280;36133;42.522;27.456;2023-05-07T01:29:55;101416.66;;;16.80;43.83
50250;BME280;36133;42.522;27.456;2023-05-07T01:32:56;101508.88;;;17.56;43.45
50250;BME280;36133;42.522;27.456;2023-05-07T01:35:26;101511.38;;;17.64;43.15
50250;BME280;36133;42.522;27.456;2023-05-07T01:37:54;101510.91;;;17.94;42.13
50250;BME280;36133;42.522;27.456;2023-05-07T01:40:20;101509.06;;;17.74;42.64
50250;BME280;36133;42.522;27.456;2023-05-07T01:42:46;101504.72;;;17.40;43.88
50250;BME280;36133;42.522;27.456;2023-05-07T01:45:13;101510.47;;;16.86;44.98
50250;BME280;36133;42.522;27.456;2023-05-07T01:47:39;101486.72;;;17.06;43.93
50250;BME280;36133;42.522;27.456;2023-05-07T01:50:06;101496.16;;;17.17;43.99
50250;BME280;36133;42.522;27.456;2023-05-07T01:52:34;101501.13;;;17.53;42.60
50250;BME280;36133;42.522;27.456;2023-05-07T01:54:59;101445.19;;;17.04;42.15
50250;BME280;36133;42.522;27.456;2023-05-07T01:57:25;101479.78;;;17.17;43.01
50250;BME280;36133;42.522;27.456;2023-05-07T01:59:50;101428.31;;;15.88;45.29
50250;BME280;36133;42.522;27.456;2023-05-07T02:02:16;101504.31;;;15.83;47.18
50250;BME280;36133;42.522;27.456;2023-05-07T02:04:41;101460.25;;;16.34;45.10
50250;BME280;36133;42.522;27.456;2023-05-07T02:07:07;101215.97;;;15.07;43.82
50250;BME280;36133;42.522;27.456;2023-05-07T02:09:33;101238.31;;;14.20;47.43
50250;BME280;36133;42.522;27.456;2023-05-07T02:11:58;100960.56;;;12.60;47.42
50250;BME280;36133;42.522;27.456;2023-05-07T02:14:24;101036.50;;;13.44;46.26
50250;BME280;36133;42.522;27.456;2023-05-07T02:16:51;101234.50;;;14.84;45.41
50250;BME280;36133;42.522;27.456;2023-05-07T02:19:19;101473.72;;;16.49;44.82
50250;BME280;36133;42.522;27.456;2023-05-07T02:21:46;101264.75;;;15.22;44.47
50250;BME280;36133;42.522;27.456;2023-05-07T02:24:12;101509.81;;;16.84;44.60
50250;BME280;36133;42.522;27.456;2023-05-07T02:26:41;101404.69;;;16.28;45.05
50250;BME280;36133;42.522;27.456;2023-05-07T02:29:07;101449.28;;;16.07;45.32
50250;BME280;36133;42.522;27.456;2023-05-07T02:31:33;101406.84;;;15.17;47.39
50250;BME280;36133;42.522;27.456;2023-05-07T02:33:59;101459.41;;;16.27;45.73
50250;BME280;36133;42.522;27.456;2023-05-07T02:36:25;101378.84;;;15.85;45.48
50250;BME280;36133;42.522;27.456;2023-05-07T02:38:52;101415.97;;;14.75;48.61
50250;BME280;36133;42.522;27.456;2023-05-07T02:41:17;101407.78;;;15.44;46.86
50250;BME280;36133;42.522;27.456;2023-05-07T02:43:43;101509.06;;;16.16;46.27
50250;BME280;36133;42.522;27.456;2023-05-07T02:46:09;101511.06;;;14.69;49.67
50250;BME280;36133;42.522;27.456;2023-05-07T02:48:35;101516.59;;;16.14;46.83
50250;BME280;36133;42.522;27.456;2023-05-07T02:51:00;101517.19;;;16.09;46.45
50250;BME280;36133;42.522;27.456;2023-05-07T02:53:27;101514.81;;;16.60;44.96
50250;BME280;36133;42.522;27.456;2023-05-07T02:55:59;101520.41;;;16.26;45.94
50250;BME280;36133;42.522;27.456;2023-05-07T02:58:26;101372.53;;;15.71;45.49
50250;BME280;36133;42.522;27.456;2023-05-07T03:00:52;100945.13;;;13.10;45.00
50250;BME280;36133;42.522;27.456;2023-05-07T03:03:18;101417.50;;;16.48;44.55
50250;BME280;36133;42.522;27.456;2023-05-07T03:05:43;101229.22;;;15.30;44.41
50250;BME280;36133;42.522;27.456;2023-05-07T03:08:09;101271.13;;;15.56;44.31
50250;BME280;36133;42.522;27.456;2023-05-07T03:10:36;101523.41;;;15.55;47.49
50250;BME280;36133;42.522;27.456;2023-05-07T03:13:02;101207.47;;;14.00;47.42
50250;BME280;36133;42.522;27.456;2023-05-07T03:15:28;101218.91;;;15.06;45.34
50250;BME280;36133;42.522;27.456;2023-05-07T03:17:53;101287.78;;;15.19;45.46
50250;BME280;36133;42.522;27.456;2023-05-07T03:20:19;101302.81;;;15.09;45.76
50250;BME280;36133;42.522;27.456;2023-05-07T03:22:44;101538.28;;;16.48;46.18
50250;BME280;36133;42.522;27.456;2023-05-07T03:25:10;101535.63;;;17.34;44.41
50250;BME280;36133;42.522;27.456;2023-05-07T03:27:36;101447.09;;;16.70;44.13
50250;BME280;36133;42.522;27.456;2023-05-07T03:30:01;101467.66;;;15.79;46.30
50250;BME280;36133;42.522;27.456;2023-05-07T03:32:27;101561.00;;;16.75;45.16
50250;BME280;36133;42.522;27.456;2023-05-07T03:34:53;101471.22;;;16.74;44.40
50250;BME280;36133;42.522;27.456;2023-05-07T03:37:18;101461.94;;;17.14;43.76
50250;BME280;36133;42.522;27.456;2023-05-07T03:39:44;101532.16;;;17.65;43.83
50250;BME280;36133;42.522;27.456;2023-05-07T03:42:10;101159.75;;;15.54;43.03
50250;BME280;36133;42.522;27.456;2023-05-07T03:44:36;101470.28;;;17.39;42.99
50250;BME280;36133;42.522;27.456;2023-05-07T03:47:02;101554.78;;;17.99;43.07
50250;BME280;36133;42.522;27.456;2023-05-07T03:49:27;101563.69;;;18.32;42.17
50250;BME280;36133;42.522;27.456;2023-05-07T03:51:53;101496.88;;;18.22;41.95
50250;BME280;36133;42.522;27.456;2023-05-07T03:54:19;101573.75;;;18.77;41.16
50250;BME280;36133;42.522;27.456;2023-05-07T03:56:44;101563.16;;;18.49;42.02
50250;BME280;36133;42.522;27.456;2023-05-07T03:59:10;101557.00;;;17.70;43.71
50250;BME280;36133;42.522;27.456;2023-05-07T04:01:35;101365.63;;;15.68;44.33
50250;BME280;36133;42.522;27.456;2023-05-07T04:04:01;101584.09;;;17.52;44.00
50250;BME280;36133;42.522;27.456;2023-05-07T04:06:30;101253.59;;;16.18;43.11
50250;BME280;36133;42.522;27.456;2023-05-07T04:08:56;101579.22;;;18.38;42.60
50250;BME280;36133;42.522;27.456;2023-05-07T04:11:21;101564.13;;;18.29;42.48
50250;BME280;36133;42.522;27.456;2023-05-07T04:13:47;101561.34;;;18.74;41.90
50250;BME280;36133;42.522;27.456;2023-05-07T04:16:13;101322.53;;;17.29;41.84
50250;BME280;36133;42.522;27.456;2023-05-07T04:18:38;101590.53;;;19.37;41.14
50250;BME280;36133;42.522;27.456;2023-05-07T04:21:04;101560.50;;;18.35;41.96
50250;BME280;36133;42.522;27.456;2023-05-07T04:23:30;101597.50;;;18.83;41.58
50250;BME280;36133;42.522;27.456;2023-05-07T04:25:55;101543.66;;;19.01;40.52
50250;BME280;36133;42.522;27.456;2023-05-07T04:28:23;101597.38;;;18.71;41.03
50250;BME280;36133;42.522;27.456;2023-05-07T04:30:48;101594.53;;;19.66;39.79
50250;BME280;36133;42.522;27.456;2023-05-07T04:33:14;101473.25;;;19.33;39.12
50250;BME280;36133;42.522;27.456;2023-05-07T04:35:43;101573.69;;;19.65;39.33
50250;BME280;36133;42.522;27.456;2023-05-07T04:38:08;101582.97;;;19.64;39.16
50250;BME280;36133;42.522;27.456;2023-05-07T04:40:35;101375.19;;;18.69;38.91
50250;BME280;36133;42.522;27.456;2023-05-07T04:43:01;101508.16;;;19.38;38.51
50250;BME280;36133;42.522;27.456;2023-05-07T04:45:27;101313.19;;;18.99;37.55
50250;BME280;36133;42.522;27.456;2023-05-07T04:47:52;101603.78;;;21.28;36.75
50250;BME280;36133;42.522;27.456;2023-05-07T04:50:18;101474.91;;;21.03;35.85
50250;BME280;36133;42.522;27.456;2023-05-07T04:52:45;101607.28;;;21.05;36.45
50250;BME280;36133;42.522;27.456;2023-05-07T04:55:10;101616.81;;;21.68;35.98
50250;BME280;36133;42.522;27.456;2023-05-07T04:57:36;101493.88;;;20.81;35.72
50250;BME280;36133;42.522;27.456;2023-05-07T05:00:04;101520.19;;;21.59;34.86
50250;BME280;36133;42.522;27.456;2023-05-07T05:02:29;101608.69;;;23.38;33.07
50250;BME280;36133;42.522;27.456;2023-05-07T05:04:55;101589.13;;;23.95;32.01
50250;BME280;36133;42.522;27.456;2023-05-07T05:07:20;101589.59;;;24.09;32.05
50250;BME280;36133;42.522;27.456;2023-05-07T05:09:46;101569.13;;;23.83;31.98
50250;BME280;36133;42.522;27.456;2023-05-07T05:12:11;101582.53;;;24.62;30.79
50250;BME280;36133;42.522;27.456;2023-05-07T05:14:37;101510.75;;;24.13;31.01
50250;BME280;36133;42.522;27.456;2023-05-07T05:17:02;101481.47;;;23.63;31.14
50250;BME280;36133;42.522;27.456;2023-05-07T05:19:28;101603.72;;;23.74;31.56
50250;BME280;36133;42.522;27.456;2023-05-07T05:21:53;101605.41;;;23.75;31.34
50250;BME280;36133;42.522;27.456;2023-05-07T05:24:19;101596.84;;;24.15;31.26
50250;BME280;36133;42.522;27.456;2023-05-07T05:26:45;101556.41;;;24.75;30.39
50250;BME280;36133;42.522;27.456;2023-05-07T05:29:11;101455.94;;;22.45;31.48
50250;BME280;36133;42.522;27.456;2023-05-07T05:31:36;101594.53;;;24.07;30.82
50250;BME280;36133;42.522;27.456;2023-05-07T05:34:02;101587.50;;;25.56;28.95
50250;BME280;36133;42.522;27.456;2023-05-07T05:36:28;101592.78;;;25.63;29.11
50250;BME280;36133;42.522;27.456;2023-05-07T05:38:55;101594.97;;;24.38;30.30
50250;BME280;36133;42.522;27.456;2023-05-07T05:41:20;101567.56;;;25.12;28.92
50250;BME280;36133;42.522;27.456;2023-05-07T05:43:46;101570.63;;;24.89;29.17
50250;BME280;36133;42.522;27.456;2023-05-07T05:46:12;101489.22;;;23.50;29.67
50250;BME280;36133;42.522;27.456;2023-05-07T05:48:37;101518.16;;;23.64;29.73
50250;BME280;36133;42.522;27.456;2023-05-07T05:51:03;101578.38;;;23.22;30.29
50250;BME280;36133;42.522;27.456;2023-05-07T05:53:28;101591.34;;;24.15;29.57
50250;BME280;36133;42.522;27.456;2023-05-07T05:55:54;101459.13;;;23.43;29.69
50250;BME280;36133;42.522;27.456;2023-05-07T05:58:20;101584.50;;;24.67;29.30
50250;BME280;36133;42.522;27.456;2023-05-07T06:00:46;101608.38;;;25.74;28.07
50250;BME280;36133;42.522;27.456;2023-05-07T06:03:13;101560.75;;;24.66;28.44
50250;BME280;36133;42.522;27.456;2023-05-07T06:05:39;101596.94;;;25.60;27.61
50250;BME280;36133;42.522;27.456;2023-05-07T06:08:04;101616.47;;;25.91;27.80
50250;BME280;36133;42.522;27.456;2023-05-07T06:10:30;101566.13;;;26.62;26.40
50250;BME280;36133;42.522;27.456;2023-05-07T06:12:55;101618.31;;;27.05;26.65
50250;BME280;36133;42.522;27.456;2023-05-07T06:15:21;101438.81;;;25.11;27.02
50250;BME280;36133;42.522;27.456;2023-05-07T06:17:46;101399.50;;;24.67;27.00
50250;BME280;36133;42.522;27.456;2023-05-07T06:20:12;101276.69;;;23.63;27.50
50250;BME280;36133;42.522;27.456;2023-05-07T06:22:38;101602.78;;;27.04;25.76
50250;BME280;36133;42.522;27.456;2023-05-07T06:25:03;101628.84;;;27.44;25.73
50250;BME280;36133;42.522;27.456;2023-05-07T06:27:29;101441.16;;;24.97;29.17
50250;BME280;36133;42.522;27.456;2023-05-07T06:29:57;101639.63;;;25.42;31.01
50250;BME280;36133;42.522;27.456;2023-05-07T06:32:26;101629.81;;;25.25;30.53
50250;BME280;36133;42.522;27.456;2023-05-07T06:34:51;101479.97;;;24.80;29.53
50250;BME280;36133;42.522;27.456;2023-05-07T06:37:17;101364.16;;;23.29;29.79
50250;BME280;36133;42.522;27.456;2023-05-07T06:39:43;101504.63;;;23.46;31.06
50250;BME280;36133;42.522;27.456;2023-05-07T06:42:08;101654.56;;;24.39;31.62
50250;BME280;36133;42.522;27.456;2023-05-07T06:44:34;101475.72;;;23.87;30.56
50250;BME280;36133;42.522;27.456;2023-05-07T06:47:00;101621.47;;;23.28;31.90
50250;BME280;36133;42.522;27.456;2023-05-07T06:49:26;101201.78;;;21.62;31.32
50250;BME280;36133;42.522;27.456;2023-05-07T06:51:52;101355.56;;;21.57;32.28
50250;BME280;36133;42.522;27.456;2023-05-07T06:54:18;101258.19;;;22.32;30.41
50250;BME280;36133;42.522;27.456;2023-05-07T06:56:44;101191.03;;;21.78;30.04
50250;BME280;36133;42.522;27.456;2023-05-07T06:59:09;101520.63;;;24.31;29.33
50250;BME280;36133;42.522;27.456;2023-05-07T07:01:35;101551.94;;;24.20;30.00
50250;BME280;36133;42.522;27.456;2023-05-07T07:04:00;101413.72;;;23.67;29.21
50250;BME280;36133;42.522;27.456;2023-05-07T07:06:26;101424.59;;;21.89;32.95
50250;BME280;36133;42.522;27.456;2023-05-07T07:08:52;101394.38;;;23.24;29.51
50250;BME280;36133;42.522;27.456;2023-05-07T07:11:17;101479.91;;;24.16;30.14
50250;BME280;36133;42.522;27.456;2023-05-07T07:13:43;101561.28;;;25.64;29.04
50250;BME280;36133;42.522;27.456;2023-05-07T07:16:09;101512.13;;;27.25;25.81
50250;BME280;36133;42.522;27.456;2023-05-07T07:18:34;101623.72;;;30.03;24.56
50250;BME280;36133;42.522;27.456;2023-05-07T07:21:01;101624.97;;;31.66;22.05
50250;BME280;36133;42.522;27.456;2023-05-07T07:23:26;101592.13;;;30.18;23.73
50250;BME280;36133;42.522;27.456;2023-05-07T07:25:52;101457.94;;;29.25;23.17
50250;BME280;36133;42.522;27.456;2023-05-07T07:28:17;101151.50;;;28.48;22.30
50250;BME280;36133;42.522;27.456;2023-05-07T07:30:44;101631.44;;;31.62;21.94
50250;BME280;36133;42.522;27.456;2023-05-07T07:33:10;101604.91;;;31.51;21.66
50250;BME280;36133;42.522;27.456;2023-05-07T07:35:35;101389.38;;;30.20;22.34
50250;BME280;36133;42.522;27.456;2023-05-07T07:38:01;101264.81;;;28.70;22.47
50250;BME280;36133;42.522;27.456;2023-05-07T07:40:27;101210.91;;;29.70;21.99
50250;BME280;36133;42.522;27.456;2023-05-07T07:42:53;101654.94;;;32.48;21.02
50250;BME280;36133;42.522;27.456;2023-05-07T07:45:19;101642.88;;;34.27;19.63
50250;BME280;36133;42.522;27.456;2023-05-07T07:47:45;101539.28;;;32.08;21.18
50250;BME280;36133;42.522;27.456;2023-05-07T07:50:11;101538.22;;;31.49;21.56
50250;BME280;36133;42.522;27.456;2023-05-07T07:52:37;101656.63;;;33.75;19.82
50250;BME280;36133;42.522;27.456;2023-05-07T07:55:03;101661.28;;;32.76;21.16
50250;BME280;36133;42.522;27.456;2023-05-07T07:57:29;101538.44;;;31.39;21.62
50250;BME280;36133;42.522;27.456;2023-05-07T07:59:55;101669.72;;;29.37;24.24
50250;BME280;36133;42.522;27.456;2023-05-07T08:02:21;101667.47;;;31.63;22.10
50250;BME280;36133;42.522;27.456;2023-05-07T08:04:47;101669.16;;;29.98;23.83
50250;BME280;36133;42.522;27.456;2023-05-07T08:07:13;101564.88;;;30.52;23.33
50250;BME280;36133;42.522;27.456;2023-05-07T08:09:39;101232.31;;;28.17;23.72
50250;BME280;36133;42.522;27.456;2023-05-07T08:12:06;101661.41;;;31.24;23.46
50250;BME280;36133;42.522;27.456;2023-05-07T08:14:33;101628.19;;;32.83;22.15
50250;BME280;36133;42.522;27.456;2023-05-07T08:16:58;101454.47;;;31.08;22.54
50250;BME280;36133;42.522;27.456;2023-05-07T08:19:24;101681.75;;;32.35;23.01
50250;BME280;36133;42.522;27.456;2023-05-07T08:21:50;101650.06;;;34.11;21.18
50250;BME280;36133;42.522;27.456;2023-05-07T08:24:17;101517.53;;;31.23;23.17
50250;BME280;36133;42.522;27.456;2023-05-07T08:26:44;101671.44;;;31.06;23.89
50250;BME280;36133;42.522;27.456;2023-05-07T08:29:10;101674.97;;;32.09;22.68
50250;BME280;36133;42.522;27.456;2023-05-07T08:31:36;101666.03;;;30.53;24.07
50250;BME280;36133;42.522;27.456;2023-05-07T08:34:03;101626.81;;;29.43;24.62
50250;BME280;36133;42.522;27.456;2023-05-07T08:36:28;101675.34;;;31.42;23.05
50250;BME280;36133;42.522;27.456;2023-05-07T08:38:54;101606.94;;;30.75;22.76
50250;BME280;36133;42.522;27.456;2023-05-07T08:41:20;101597.88;;;25.76;28.65
50250;BME280;36133;42.522;27.456;2023-05-07T08:43:50;101683.28;;;28.60;26.52
50250;BME280;36133;42.522;27.456;2023-05-07T08:46:20;101677.69;;;31.16;24.46
50250;BME280;36133;42.522;27.456;2023-05-07T08:48:50;101623.34;;;33.96;21.55
50250;BME280;36133;42.522;27.456;2023-05-07T08:51:18;101666.47;;;33.41;22.18
50250;BME280;36133;42.522;27.456;2023-05-07T08:53:44;101253.31;;;33.45;20.09
50250;BME280;36133;42.522;27.456;2023-05-07T08:56:10;101661.41;;;33.07;23.18
50250;BME280;36133;42.522;27.456;2023-05-07T08:58:36;101652.44;;;34.26;20.80
50250;BME280;36133;42.522;27.456;2023-05-07T09:01:07;101605.16;;;30.84;24.02
50250;BME280;36133;42.522;27.456;2023-05-07T09:03:34;101645.59;;;33.25;21.82
50250;BME280;36133;42.522;27.456;2023-05-07T09:05:59;101621.88;;;34.55;20.90
50250;BME280;36133;42.522;27.456;2023-05-07T09:08:26;101345.06;;;30.04;24.42
50250;BME280;36133;42.522;27.456;2023-05-07T09:10:52;101313.00;;;29.32;24.38
50250;BME280;36133;42.522;27.456;2023-05-07T09:13:19;101521.28;;;33.09;22.06
50250;BME280;36133;42.522;27.456;2023-05-07T09:15:44;101654.88;;;31.14;24.70
50250;BME280;36133;42.522;27.456;2023-05-07T09:18:10;101662.94;;;32.77;23.20
50250;BME280;36133;42.522;27.456;2023-05-07T09:20:39;101378.13;;;32.08;21.85
50250;BME280;36133;42.522;27.456;2023-05-07T09:23:11;101286.13;;;32.34;20.92
50250;BME280;36133;42.522;27.456;2023-05-07T09:25:37;101553.19;;;35.39;19.84
50250;BME280;36133;42.522;27.456;2023-05-07T09:28:04;101372.47;;;32.00;22.40
50250;BME280;36133;42.522;27.456;2023-05-07T09:30:31;101357.59;;;31.00;23.63
50250;BME280;36133;42.522;27.456;2023-05-07T09:33:04;101236.97;;;31.08;23.08
50250;BME280;36133;42.522;27.456;2023-05-07T09:35:30;101197.69;;;29.94;24.47
50250;BME280;36133;42.522;27.456;2023-05-07T09:37:57;101449.50;;;29.06;26.46
50250;BME280;36133;42.522;27.456;2023-05-07T09:40:30;101609.00;;;28.76;28.79
50250;BME280;36133;42.522;27.456;2023-05-07T09:42:56;101571.91;;;30.50;26.64
50250;BME280;36133;42.522;27.456;2023-05-07T09:45:26;101627.34;;;30.89;25.44
50250;BME280;36133;42.522;27.456;2023-05-07T09:47:55;101125.78;;;27.55;25.40
50250;BME280;36133;42.522;27.456;2023-05-07T09:50:26;101253.31;;;27.99;26.32
50250;BME280;36133;42.522;27.456;2023-05-07T09:52:54;101426.22;;;30.68;24.85
50250;BME280;36133;42.522;27.456;2023-05-07T09:55:20;101195.22;;;29.04;24.40
50250;BME280;36133;42.522;27.456;2023-05-07T09:57:50;101341.78;;;29.41;24.84
50250;BME280;36133;42.522;27.456;2023-05-07T10:00:18;101172.94;;;29.41;23.77
50250;BME280;36133;42.522;27.456;2023-05-07T10:02:49;101620.19;;;33.13;23.12
50250;BME280;36133;42.522;27.456;2023-05-07T10:05:18;101601.44;;;34.98;21.39
50250;BME280;36133;42.522;27.456;2023-05-07T10:07:46;101355.84;;;32.93;21.72
50250;BME280;36133;42.522;27.456;2023-05-07T10:10:12;101447.72;;;34.05;21.47
50250;BME280;36133;42.522;27.456;2023-05-07T10:12:38;101204.16;;;31.77;21.96
50250;BME280;36133;42.522;27.456;2023-05-07T10:15:09;101516.34;;;32.70;22.66
50250;BME280;36133;42.522;27.456;2023-05-07T10:17:39;101464.41;;;28.92;26.53
50250;BME280;36133;42.522;27.456;2023-05-07T10:20:06;101617.41;;;33.35;22.78
50250;BME280;36133;42.522;27.456;2023-05-07T10:22:40;101278.72;;;30.85;23.41
50250;BME280;36133;42.522;27.456;2023-05-07T10:25:14;101548.16;;;32.96;23.39
50250;BME280;36133;42.522;27.456;2023-05-07T10:27:41;101173.00;;;28.61;25.67
50250;BME280;36133;42.522;27.456;2023-05-07T10:33:08;101442.13;;;31.41;24.01
50250;BME280;36133;42.522;27.456;2023-05-07T10:35:42;101475.63;;;32.32;22.98
50250;BME280;36133;42.522;27.456;2023-05-07T10:38:17;101288.16;;;29.92;24.27
50250;BME280;36133;42.522;27.456;2023-05-07T10:40:44;101366.25;;;30.98;23.60
50250;BME280;36133;42.522;27.456;2023-05-07T10:43:10;101611.34;;;29.90;27.16
50250;BME280;36133;42.522;27.456;2023-05-07T10:45:35;101295.44;;;29.12;25.94
50250;BME280;36133;42.522;27.456;2023-05-07T10:48:14;101584.66;;;32.77;24.41
50250;BME280;36133;42.522;27.456;2023-05-07T10:50:41;101438.50;;;34.04;22.41
50250;BME280;36133;42.522;27.456;2023-05-07T10:55:42;101319.94;;;31.66;23.52
50250;BME280;36133;42.522;27.456;2023-05-07T10:58:27;101249.50;;;30.09;23.75
50250;BME280;36133;42.522;27.456;2023-05-07T11:00:56;101603.38;;;32.54;24.06
50250;BME280;36133;42.522;27.456;2023-05-07T11:03:22;101114.34;;;29.57;24.20
50250;BME280;36133;42.522;27.456;2023-05-07T11:06:08;101610.25;;;30.58;26.03
50250;BME280;36133;42.522;27.456;2023-05-07T11:09:01;101607.72;;;30.19;26.88
50250;BME280;36133;42.522;27.456;2023-05-07T11:11:48;101609.97;;;28.51;28.62
50250;BME280;36133;42.522;27.456;2023-05-07T11:14:42;101380.06;;;32.75;22.99
50250;BME280;36133;42.522;27.456;2023-05-07T11:17:11;101496.31;;;34.00;22.38
50250;BME280;36133;42.522;27.456;2023-05-07T11:19:50;101606.56;;;33.73;22.52
50250;BME280;36133;42.522;27.456;2023-05-07T11:25:00;101593.50;;;31.14;25.17
50250;BME280;36133;42.522;27.456;2023-05-07T11:27:26;101603.81;;;33.29;23.09
50250;BME280;36133;42.522;27.456;2023-05-07T11:29:52;101610.34;;;33.69;22.20
50250;BME280;36133;42.522;27.456;2023-05-07T11:32:32;101473.75;;;31.64;23.20
50250;BME280;36133;42.522;27.456;2023-05-07T11:34:59;101562.84;;;33.02;22.55
50250;BME280;36133;42.522;27.456;2023-05-07T11:37:26;101580.59;;;32.61;22.01
50250;BME280;36133;42.522;27.456;2023-05-07T11:40:06;101601.63;;;29.35;26.11
50250;BME280;36133;42.522;27.456;2023-05-07T11:42:33;101153.91;;;27.04;25.88
50250;BME280;36133;42.522;27.456;2023-05-07T11:45:00;101604.13;;;32.19;23.73
50250;BME280;36133;42.522;27.456;2023-05-07T11:47:26;101604.13;;;32.82;22.94
50250;BME280;36133;42.522;27.456;2023-05-07T11:49:53;101506.22;;;28.32;27.11
50250;BME280;36133;42.522;27.456;2023-05-07T11:52:21;101576.50;;;31.62;23.35
50250;BME280;36133;42.522;27.456;2023-05-07T11:54:53;101302.22;;;29.25;24.44
50250;BME280;36133;42.522;27.456;2023-05-07T11:57:20;101576.72;;;31.93;23.83
50250;BME280;36133;42.522;27.456;2023-05-07T11:59:46;101543.78;;;31.03;24.46
50250;BME280;36133;42.522;27.456;2023-05-07T12:02:17;101587.50;;;32.63;23.41
50250;BME280;36133;42.522;27.456;2023-05-07T12:04:43;101617.78;;;29.28;27.65
50250;BME280;36133;42.522;27.456;2023-05-07T12:07:18;101551.84;;;29.62;27.04
50250;BME280;36133;42.522;27.456;2023-05-07T12:09:47;101605.94;;;31.22;25.83
50250;BME280;36133;42.522;27.456;2023-05-07T12:12:13;101580.84;;;31.22;25.55
50250;BME280;36133;42.522;27.456;2023-05-07T12:14:44;101544.84;;;31.53;24.98
50250;BME280;36133;42.522;27.456;2023-05-07T12:17:11;101515.78;;;32.59;23.70
50250;BME280;36133;42.522;27.456;2023-05-07T12:19:38;101463.97;;;29.08;26.48
50250;BME280;36133;42.522;27.456;2023-05-07T12:22:05;101537.22;;;32.00;24.49
50250;BME280;36133;42.522;27.456;2023-05-07T12:24:44;101526.00;;;31.31;25.14
50250;BME280;36133;42.522;27.456;2023-05-07T12:27:10;101551.72;;;32.52;24.28
50250;BME280;36133;42.522;27.456;2023-05-07T12:29:36;101599.31;;;29.13;27.88
50250;BME280;36133;42.522;27.456;2023-05-07T12:32:06;101544.25;;;29.68;27.03
50250;BME280;36133;42.522;27.456;2023-05-07T12:34:31;101594.06;;;30.41;26.60
50250;BME280;36133;42.522;27.456;2023-05-07T12:36:57;101601.88;;;29.91;27.06
50250;BME280;36133;42.522;27.456;2023-05-07T12:39:22;101565.59;;;30.63;25.93
50250;BME280;36133;42.522;27.456;2023-05-07T12:44:23;101583.53;;;32.42;24.23
50250;BME280;36133;42.522;27.456;2023-05-07T12:46:49;101561.56;;;33.08;23.12
50250;BME280;36133;42.522;27.456;2023-05-07T12:49:15;101596.63;;;33.59;22.88
50250;BME280;36133;42.522;27.456;2023-05-07T12:51:43;101553.47;;;30.73;25.69